sensor_id;sensor_type;location;lat;lon;timestamp;P1;durP1;ratioP1;P2;durP2;ratioP2
51312;SDS011;37397;53.226;10.400;2023-07-16T00:00:22;3.05;;;1.42;;
51312;SDS011;37397;53.226;10.400;2023-07-16T00:02:52;3.28;;;1.80;;
51312;SDS011;37397;53.226;10.400;2023-07-16T00:05:19;3.67;;;1.67;;
51312;SDS011;37397;53.226;10.400;2023-07-16T00:07:45;2.08;;;1.40;;
51312;SDS011;37397;53.226;10.400;2023-07-16T00:10:12;2.95;;;1.25;;
51312;SDS011;37397;53.226;10.400;2023-07-16T00:12:38;2.08;;;1.45;;
51312;SDS011;37397;53.226;10.400;2023-07-16T00:15:05;4.45;;;1.48;;
51312;SDS011;37397;53.226;10.400;2023-07-16T00:17:33;3.58;;;1.65;;
51312;SDS011;37397;53.226;10.400;2023-07-16T00:20:00;2.35;;;1.52;;
51312;SDS011;37397;53.226;10.400;2023-07-16T00:22:27;2.45;;;1.50;;
51312;SDS011;37397;53.226;10.400;2023-07-16T00:24:53;2.83;;;1.50;;
51312;SDS011;37397;53.226;10.400;2023-07-16T00:27:20;3.63;;;1.60;;
51312;SDS011;37397;53.226;10.400;2023-07-16T00:29:46;5.45;;;1.67;;
51312;SDS011;37397;53.226;10.400;2023-07-16T00:32:13;2.10;;;1.40;;
51312;SDS011;37397;53.226;10.400;2023-07-16T00:34:40;2.08;;;1.67;;
51312;SDS011;37397;53.226;10.400;2023-07-16T00:37:07;3.15;;;1.58;;
51312;SDS011;37397;53.226;10.400;2023-07-16T00:39:34;1.63;;;1.27;;
51312;SDS011;37397;53.226;10.400;2023-07-16T00:42:00;2.97;;;1.42;;
51312;SDS011;37397;53.226;10.400;2023-07-16T00:44:27;2.13;;;1.40;;
51312;SDS011;37397;53.226;10.400;2023-07-16T00:46:53;3.30;;;1.40;;
51312;SDS011;37397;53.226;10.400;2023-07-16T00:49:20;2.08;;;1.50;;
51312;SDS011;37397;53.226;10.400;2023-07-16T00:51:46;4.22;;;1.70;;
51312;SDS011;37397;53.226;10.400;2023-07-16T00:54:13;3.35;;;1.30;;
51312;SDS011;37397;53.226;10.400;2023-07-16T00:56:40;2.70;;;1.50;;
51312;SDS011;37397;53.226;10.400;2023-07-16T00:59:07;2.30;;;1.42;;
51312;SDS011;37397;53.226;10.400;2023-07-16T01:01:33;3.90;;;1.80;;
51312;SDS011;37397;53.226;10.400;2023-07-16T01:04:00;2.97;;;1.42;;
51312;SDS011;37397;53.226;10.400;2023-07-16T01:06:32;3.15;;;1.60;;
51312;SDS011;37397;53.226;10.400;2023-07-16T01:11:43;2.67;;;1.45;;
51312;SDS011;37397;53.226;10.400;2023-07-16T01:14:10;2.35;;;1.40;;
51312;SDS011;37397;53.226;10.400;2023-07-16T01:16:40;3.83;;;1.83;;
51312;SDS011;37397;53.226;10.400;2023-07-16T01:19:07;3.90;;;1.58;;
51312;SDS011;37397;53.226;10.400;2023-07-16T01:21:35;2.38;;;1.33;;
51312;SDS011;37397;53.226;10.400;2023-07-16T01:24:13;1.83;;;1.45;;
51312;SDS011;37397;53.226;10.400;2023-07-16T01:30:04;2.50;;;1.50;;
51312;SDS011;37397;53.226;10.400;2023-07-16T01:32:31;4.47;;;1.60;;
51312;SDS011;37397;53.226;10.400;2023-07-16T01:35:00;3.88;;;1.73;;
51312;SDS011;37397;53.226;10.400;2023-07-16T01:37:28;2.58;;;1.52;;
51312;SDS011;37397;53.226;10.400;2023-07-16T01:39:55;4.47;;;1.80;;
51312;SDS011;37397;53.226;10.400;2023-07-16T01:42:21;2.63;;;1.48;;
51312;SDS011;37397;53.226;10.400;2023-07-16T01:44:48;4.05;;;1.60;;
51312;SDS011;37397;53.226;10.400;2023-07-16T01:47:27;4.28;;;1.70;;
51312;SDS011;37397;53.226;10.400;2023-07-16T01:50:09;4.90;;;2.00;;
51312;SDS011;37397;53.226;10.400;2023-07-16T01:52:36;3.38;;;1.60;;
51312;SDS011;37397;53.226;10.400;2023-07-16T01:55:02;2.60;;;1.42;;
51312;SDS011;37397;53.226;10.400;2023-07-16T01:57:29;3.17;;;1.90;;
51312;SDS011;37397;53.226;10.400;2023-07-16T01:59:56;3.05;;;1.52;;
51312;SDS011;37397;53.226;10.400;2023-07-16T02:02:23;3.60;;;1.77;;
51312;SDS011;37397;53.226;10.400;2023-07-16T02:04:49;3.30;;;1.60;;
51312;SDS011;37397;53.226;10.400;2023-07-16T02:07:17;2.25;;;1.48;;
51312;SDS011;37397;53.226;10.400;2023-07-16T02:09:44;3.13;;;1.60;;
51312;SDS011;37397;53.226;10.400;2023-07-16T02:12:10;3.80;;;1.60;;
51312;SDS011;37397;53.226;10.400;2023-07-16T02:14:37;3.38;;;1.77;;
51312;SDS011;37397;53.226;10.400;2023-07-16T02:17:03;3.47;;;1.40;;
51312;SDS011;37397;53.226;10.400;2023-07-16T02:19:30;2.70;;;1.70;;
51312;SDS011;37397;53.226;10.400;2023-07-16T02:21:57;2.42;;;1.60;;
51312;SDS011;37397;53.226;10.400;2023-07-16T02:24:23;4.97;;;1.73;;
51312;SDS011;37397;53.226;10.400;2023-07-16T02:26:50;5.90;;;1.70;;
51312;SDS011;37397;53.226;10.400;2023-07-16T02:29:17;4.72;;;1.88;;
51312;SDS011;37397;53.226;10.400;2023-07-16T02:31:43;4.55;;;1.58;;
51312;SDS011;37397;53.226;10.400;2023-07-16T02:34:12;3.15;;;1.83;;
51312;SDS011;37397;53.226;10.400;2023-07-16T02:36:39;4.07;;;1.80;;
51312;SDS011;37397;53.226;10.400;2023-07-16T02:39:05;3.83;;;1.80;;
51312;SDS011;37397;53.226;10.400;2023-07-16T02:41:32;4.28;;;1.80;;
51312;SDS011;37397;53.226;10.400;2023-07-16T02:43:59;2.72;;;1.75;;
51312;SDS011;37397;53.226;10.400;2023-07-16T02:46:27;2.70;;;1.40;;
51312;SDS011;37397;53.226;10.400;2023-07-16T02:48:54;2.78;;;1.33;;
51312;SDS011;37397;53.226;10.400;2023-07-16T02:51:20;3.70;;;1.90;;
51312;SDS011;37397;53.226;10.400;2023-07-16T02:53:47;4.45;;;1.75;;
51312;SDS011;37397;53.226;10.400;2023-07-16T02:56:13;4.60;;;1.67;;
51312;SDS011;37397;53.226;10.400;2023-07-16T02:58:41;4.28;;;1.80;;
51312;SDS011;37397;53.226;10.400;2023-07-16T03:01:07;3.85;;;1.63;;
51312;SDS011;37397;53.226;10.400;2023-07-16T03:03:34;3.25;;;1.60;;
51312;SDS011;37397;53.226;10.400;2023-07-16T03:06:01;2.25;;;1.50;;
51312;SDS011;37397;53.226;10.400;2023-07-16T03:08:28;2.85;;;1.60;;
51312;SDS011;37397;53.226;10.400;2023-07-16T03:10:56;3.22;;;1.90;;
51312;SDS011;37397;53.226;10.400;2023-07-16T03:13:23;3.72;;;1.95;;
51312;SDS011;37397;53.226;10.400;2023-07-16T03:15:50;3.00;;;1.50;;
51312;SDS011;37397;53.226;10.400;2023-07-16T03:18:19;2.60;;;1.52;;
51312;SDS011;37397;53.226;10.400;2023-07-16T03:20:46;3.40;;;1.52;;
51312;SDS011;37397;53.226;10.400;2023-07-16T03:23:13;3.70;;;1.90;;
51312;SDS011;37397;53.226;10.400;2023-07-16T03:25:39;2.55;;;1.80;;
51312;SDS011;37397;53.226;10.400;2023-07-16T03:28:06;3.78;;;1.70;;
51312;SDS011;37397;53.226;10.400;2023-07-16T03:30:32;4.70;;;2.10;;
51312;SDS011;37397;53.226;10.400;2023-07-16T03:32:59;4.30;;;1.95;;
51312;SDS011;37397;53.226;10.400;2023-07-16T03:35:26;4.35;;;1.88;;
51312;SDS011;37397;53.226;10.400;2023-07-16T03:37:53;3.28;;;1.70;;
51312;SDS011;37397;53.226;10.400;2023-07-16T03:40:23;5.00;;;2.08;;
51312;SDS011;37397;53.226;10.400;2023-07-16T03:42:51;4.75;;;1.80;;
51312;SDS011;37397;53.226;10.400;2023-07-16T03:45:18;5.38;;;1.80;;
51312;SDS011;37397;53.226;10.400;2023-07-16T03:47:45;3.72;;;1.77;;
51312;SDS011;37397;53.226;10.400;2023-07-16T03:50:12;3.33;;;1.70;;
51312;SDS011;37397;53.226;10.400;2023-07-16T03:52:38;4.03;;;2.00;;
51312;SDS011;37397;53.226;10.400;2023-07-16T03:55:05;3.88;;;1.80;;
51312;SDS011;37397;53.226;10.400;2023-07-16T03:57:33;3.55;;;1.95;;
51312;SDS011;37397;53.226;10.400;2023-07-16T03:59:59;4.95;;;2.00;;
51312;SDS011;37397;53.226;10.400;2023-07-16T04:02:28;5.68;;;2.10;;
51312;SDS011;37397;53.226;10.400;2023-07-16T04:04:54;4.38;;;1.77;;
51312;SDS011;37397;53.226;10.400;2023-07-16T04:07:21;5.68;;;2.08;;
51312;SDS011;37397;53.226;10.400;2023-07-16T04:09:47;3.38;;;1.77;;
51312;SDS011;37397;53.226;10.400;2023-07-16T04:12:14;3.65;;;1.98;;
51312;SDS011;37397;53.226;10.400;2023-07-16T04:14:40;4.13;;;1.95;;
51312;SDS011;37397;53.226;10.400;2023-07-16T04:17:07;3.97;;;1.77;;
51312;SDS011;37397;53.226;10.400;2023-07-16T04:19:33;4.15;;;2.08;;
51312;SDS011;37397;53.226;10.400;2023-07-16T04:22:00;4.60;;;2.25;;
51312;SDS011;37397;53.226;10.400;2023-07-16T04:24:27;3.67;;;2.08;;
51312;SDS011;37397;53.226;10.400;2023-07-16T04:26:53;4.70;;;1.98;;
51312;SDS011;37397;53.226;10.400;2023-07-16T04:29:20;4.40;;;2.00;;
51312;SDS011;37397;53.226;10.400;2023-07-16T04:31:47;3.63;;;2.00;;
51312;SDS011;37397;53.226;10.400;2023-07-16T04:34:14;4.03;;;1.90;;
51312;SDS011;37397;53.226;10.400;2023-07-16T04:36:41;3.45;;;1.80;;
51312;SDS011;37397;53.226;10.400;2023-07-16T04:39:08;4.10;;;1.90;;
51312;SDS011;37397;53.226;10.400;2023-07-16T04:41:35;5.72;;;2.28;;
51312;SDS011;37397;53.226;10.400;2023-07-16T04:44:02;4.47;;;1.90;;
51312;SDS011;37397;53.226;10.400;2023-07-16T04:46:29;5.10;;;2.00;;
51312;SDS011;37397;53.226;10.400;2023-07-16T04:48:57;3.60;;;2.10;;
51312;SDS011;37397;53.226;10.400;2023-07-16T04:51:23;3.47;;;1.70;;
51312;SDS011;37397;53.226;10.400;2023-07-16T04:53:50;3.65;;;1.85;;
51312;SDS011;37397;53.226;10.400;2023-07-16T04:56:16;4.30;;;1.83;;
51312;SDS011;37397;53.226;10.400;2023-07-16T04:58:44;4.25;;;1.98;;
51312;SDS011;37397;53.226;10.400;2023-07-16T05:01:10;4.43;;;2.15;;
51312;SDS011;37397;53.226;10.400;2023-07-16T05:03:37;7.00;;;2.45;;
51312;SDS011;37397;53.226;10.400;2023-07-16T05:06:05;4.45;;;2.10;;
51312;SDS011;37397;53.226;10.400;2023-07-16T05:08:31;4.43;;;1.98;;
51312;SDS011;37397;53.226;10.400;2023-07-16T05:10:58;5.30;;;2.00;;
51312;SDS011;37397;53.226;10.400;2023-07-16T05:13:25;6.32;;;2.00;;
51312;SDS011;37397;53.226;10.400;2023-07-16T05:15:52;4.25;;;2.00;;
51312;SDS011;37397;53.226;10.400;2023-07-16T05:18:19;4.57;;;1.92;;
51312;SDS011;37397;53.226;10.400;2023-07-16T05:20:47;4.47;;;1.98;;
51312;SDS011;37397;53.226;10.400;2023-07-16T05:23:15;4.25;;;2.17;;
51312;SDS011;37397;53.226;10.400;2023-07-16T05:25:46;5.63;;;2.30;;
51312;SDS011;37397;53.226;10.400;2023-07-16T05:28:18;6.78;;;2.25;;
51312;SDS011;37397;53.226;10.400;2023-07-16T05:30:45;5.78;;;2.13;;
51312;SDS011;37397;53.226;10.400;2023-07-16T05:33:11;6.35;;;2.30;;
51312;SDS011;37397;53.226;10.400;2023-07-16T05:35:38;7.50;;;2.70;;
51312;SDS011;37397;53.226;10.400;2023-07-16T05:38:05;6.40;;;2.60;;
51312;SDS011;37397;53.226;10.400;2023-07-16T05:40:32;5.93;;;2.22;;
51312;SDS011;37397;53.226;10.400;2023-07-16T05:42:59;5.10;;;2.30;;
51312;SDS011;37397;53.226;10.400;2023-07-16T05:45:25;5.97;;;2.22;;
51312;SDS011;37397;53.226;10.400;2023-07-16T05:47:52;8.40;;;2.35;;
51312;SDS011;37397;53.226;10.400;2023-07-16T05:50:18;5.40;;;2.20;;
51312;SDS011;37397;53.226;10.400;2023-07-16T05:52:45;7.78;;;2.10;;
51312;SDS011;37397;53.226;10.400;2023-07-16T05:55:14;8.93;;;2.60;;
51312;SDS011;37397;53.226;10.400;2023-07-16T05:57:41;5.00;;;2.10;;
51312;SDS011;37397;53.226;10.400;2023-07-16T06:00:07;6.80;;;2.20;;
51312;SDS011;37397;53.226;10.400;2023-07-16T06:02:38;7.40;;;2.15;;
51312;SDS011;37397;53.226;10.400;2023-07-16T06:05:05;5.22;;;2.03;;
51312;SDS011;37397;53.226;10.400;2023-07-16T06:07:32;5.80;;;2.25;;
51312;SDS011;37397;53.226;10.400;2023-07-16T06:09:58;4.75;;;2.13;;
51312;SDS011;37397;53.226;10.400;2023-07-16T06:12:25;4.72;;;2.20;;
51312;SDS011;37397;53.226;10.400;2023-07-16T06:14:52;6.57;;;2.10;;
51312;SDS011;37397;53.226;10.400;2023-07-16T06:17:19;4.05;;;1.90;;
51312;SDS011;37397;53.226;10.400;2023-07-16T06:19:46;4.13;;;2.20;;
51312;SDS011;37397;53.226;10.400;2023-07-16T06:22:14;4.95;;;2.53;;
51312;SDS011;37397;53.226;10.400;2023-07-16T06:24:41;5.68;;;2.30;;
51312;SDS011;37397;53.226;10.400;2023-07-16T06:27:07;5.07;;;2.20;;
51312;SDS011;37397;53.226;10.400;2023-07-16T06:29:34;6.05;;;2.40;;
51312;SDS011;37397;53.226;10.400;2023-07-16T06:32:00;7.07;;;2.72;;
51312;SDS011;37397;53.226;10.400;2023-07-16T06:34:27;4.18;;;1.98;;
51312;SDS011;37397;53.226;10.400;2023-07-16T06:36:54;3.83;;;2.20;;
51312;SDS011;37397;53.226;10.400;2023-07-16T06:39:20;5.90;;;2.25;;
51312;SDS011;37397;53.226;10.400;2023-07-16T06:41:47;5.05;;;2.38;;
51312;SDS011;37397;53.226;10.400;2023-07-16T06:44:13;5.07;;;2.15;;
51312;SDS011;37397;53.226;10.400;2023-07-16T06:46:40;7.63;;;2.60;;
51312;SDS011;37397;53.226;10.400;2023-07-16T06:49:07;4.68;;;2.03;;
51312;SDS011;37397;53.226;10.400;2023-07-16T06:51:34;5.03;;;2.25;;
51312;SDS011;37397;53.226;10.400;2023-07-16T06:54:00;6.15;;;2.40;;
51312;SDS011;37397;53.226;10.400;2023-07-16T06:56:27;7.72;;;2.40;;
51312;SDS011;37397;53.226;10.400;2023-07-16T06:58:53;4.38;;;1.85;;
51312;SDS011;37397;53.226;10.400;2023-07-16T07:01:20;4.40;;;2.22;;
51312;SDS011;37397;53.226;10.400;2023-07-16T07:03:47;4.15;;;2.10;;
51312;SDS011;37397;53.226;10.400;2023-07-16T07:06:13;5.80;;;2.30;;
51312;SDS011;37397;53.226;10.400;2023-07-16T07:08:40;2.83;;;2.00;;
51312;SDS011;37397;53.226;10.400;2023-07-16T07:11:07;4.93;;;2.40;;
51312;SDS011;37397;53.226;10.400;2023-07-16T07:13:33;5.03;;;2.28;;
51312;SDS011;37397;53.226;10.400;2023-07-16T07:16:00;4.78;;;2.20;;
51312;SDS011;37397;53.226;10.400;2023-07-16T07:18:26;5.50;;;2.28;;
51312;SDS011;37397;53.226;10.400;2023-07-16T07:20:53;4.57;;;1.90;;
51312;SDS011;37397;53.226;10.400;2023-07-16T07:23:19;4.57;;;2.03;;
51312;SDS011;37397;53.226;10.400;2023-07-16T07:25:50;5.07;;;2.15;;
51312;SDS011;37397;53.226;10.400;2023-07-16T07:28:18;4.18;;;2.13;;
51312;SDS011;37397;53.226;10.400;2023-07-16T07:30:45;5.18;;;2.25;;
51312;SDS011;37397;53.226;10.400;2023-07-16T07:33:12;5.28;;;2.10;;
51312;SDS011;37397;53.226;10.400;2023-07-16T07:35:39;4.80;;;2.30;;
51312;SDS011;37397;53.226;10.400;2023-07-16T07:38:06;4.75;;;2.28;;
51312;SDS011;37397;53.226;10.400;2023-07-16T07:40:32;6.85;;;2.30;;
51312;SDS011;37397;53.226;10.400;2023-07-16T07:42:59;8.30;;;2.58;;
51312;SDS011;37397;53.226;10.400;2023-07-16T07:45:26;5.47;;;2.40;;
51312;SDS011;37397;53.226;10.400;2023-07-16T07:47:53;4.45;;;2.38;;
51312;SDS011;37397;53.226;10.400;2023-07-16T07:50:19;6.28;;;2.30;;
51312;SDS011;37397;53.226;10.400;2023-07-16T07:52:46;5.63;;;2.20;;
51312;SDS011;37397;53.226;10.400;2023-07-16T07:55:12;7.80;;;2.35;;
51312;SDS011;37397;53.226;10.400;2023-07-16T07:57:39;7.13;;;2.55;;
51312;SDS011;37397;53.226;10.400;2023-07-16T08:00:05;5.80;;;2.20;;
51312;SDS011;37397;53.226;10.400;2023-07-16T08:05:06;6.80;;;2.45;;
51312;SDS011;37397;53.226;10.400;2023-07-16T08:07:33;7.25;;;2.50;;
51312;SDS011;37397;53.226;10.400;2023-07-16T08:10:00;6.43;;;2.15;;
51312;SDS011;37397;53.226;10.400;2023-07-16T08:12:26;5.80;;;2.20;;
51312;SDS011;37397;53.226;10.400;2023-07-16T08:14:53;7.38;;;2.33;;
51312;SDS011;37397;53.226;10.400;2023-07-16T08:17:19;5.47;;;2.03;;
51312;SDS011;37397;53.226;10.400;2023-07-16T08:19:49;5.80;;;2.30;;
51312;SDS011;37397;53.226;10.400;2023-07-16T08:22:17;7.18;;;2.53;;
51312;SDS011;37397;53.226;10.400;2023-07-16T08:24:43;5.57;;;2.03;;
51312;SDS011;37397;53.226;10.400;2023-07-16T08:27:10;6.20;;;2.22;;
51312;SDS011;37397;53.226;10.400;2023-07-16T08:29:36;5.65;;;2.67;;
51312;SDS011;37397;53.226;10.400;2023-07-16T08:32:03;6.85;;;2.60;;
51312;SDS011;37397;53.226;10.400;2023-07-16T08:34:30;6.18;;;2.45;;
51312;SDS011;37397;53.226;10.400;2023-07-16T08:36:57;5.45;;;2.40;;
51312;SDS011;37397;53.226;10.400;2023-07-16T08:39:23;8.27;;;2.75;;
51312;SDS011;37397;53.226;10.400;2023-07-16T08:41:51;5.25;;;2.25;;
51312;SDS011;37397;53.226;10.400;2023-07-16T08:44:19;5.50;;;2.42;;
51312;SDS011;37397;53.226;10.400;2023-07-16T08:46:46;5.50;;;2.17;;
51312;SDS011;37397;53.226;10.400;2023-07-16T08:49:13;5.10;;;2.33;;
51312;SDS011;37397;53.226;10.400;2023-07-16T08:51:39;6.30;;;2.63;;
51312;SDS011;37397;53.226;10.400;2023-07-16T08:54:07;4.82;;;2.63;;
51312;SDS011;37397;53.226;10.400;2023-07-16T08:56:34;5.15;;;2.72;;
51312;SDS011;37397;53.226;10.400;2023-07-16T08:59:00;4.43;;;2.47;;
51312;SDS011;37397;53.226;10.400;2023-07-16T09:01:27;6.50;;;2.83;;
51312;SDS011;37397;53.226;10.400;2023-07-16T09:03:54;6.00;;;2.55;;
51312;SDS011;37397;53.226;10.400;2023-07-16T09:06:21;6.22;;;2.85;;
51312;SDS011;37397;53.226;10.400;2023-07-16T09:08:48;6.78;;;2.70;;
51312;SDS011;37397;53.226;10.400;2023-07-16T09:11:14;5.70;;;2.53;;
51312;SDS011;37397;53.226;10.400;2023-07-16T09:13:45;6.32;;;3.03;;
51312;SDS011;37397;53.226;10.400;2023-07-16T09:16:12;6.82;;;2.53;;
51312;SDS011;37397;53.226;10.400;2023-07-16T09:18:39;8.38;;;2.78;;
51312;SDS011;37397;53.226;10.400;2023-07-16T09:21:07;6.93;;;2.95;;
51312;SDS011;37397;53.226;10.400;2023-07-16T09:23:33;6.93;;;3.00;;
51312;SDS011;37397;53.226;10.400;2023-07-16T09:26:00;6.93;;;2.90;;
51312;SDS011;37397;53.226;10.400;2023-07-16T09:28:33;7.75;;;3.28;;
51312;SDS011;37397;53.226;10.400;2023-07-16T09:31:04;7.18;;;2.97;;
51312;SDS011;37397;53.226;10.400;2023-07-16T09:33:32;5.15;;;2.75;;
51312;SDS011;37397;53.226;10.400;2023-07-16T09:36:00;6.28;;;3.10;;
51312;SDS011;37397;53.226;10.400;2023-07-16T09:38:26;5.22;;;2.95;;
51312;SDS011;37397;53.226;10.400;2023-07-16T09:40:55;9.20;;;3.47;;
51312;SDS011;37397;53.226;10.400;2023-07-16T09:43:22;8.52;;;3.05;;
51312;SDS011;37397;53.226;10.400;2023-07-16T09:45:49;6.75;;;3.33;;
51312;SDS011;37397;53.226;10.400;2023-07-16T09:48:16;6.30;;;3.03;;
51312;SDS011;37397;53.226;10.400;2023-07-16T09:50:45;5.10;;;3.08;;
51312;SDS011;37397;53.226;10.400;2023-07-16T09:53:18;9.43;;;3.28;;
51312;SDS011;37397;53.226;10.400;2023-07-16T09:55:47;6.75;;;3.45;;
51312;SDS011;37397;53.226;10.400;2023-07-16T09:58:15;10.93;;;3.42;;
51312;SDS011;37397;53.226;10.400;2023-07-16T10:00:45;5.72;;;3.10;;
51312;SDS011;37397;53.226;10.400;2023-07-16T10:03:15;9.02;;;3.55;;
51312;SDS011;37397;53.226;10.400;2023-07-16T10:05:43;7.88;;;3.60;;
51312;SDS011;37397;53.226;10.400;2023-07-16T10:08:17;7.45;;;3.15;;
51312;SDS011;37397;53.226;10.400;2023-07-16T10:10:46;9.50;;;3.50;;
51312;SDS011;37397;53.226;10.400;2023-07-16T10:13:21;6.65;;;3.33;;
51312;SDS011;37397;53.226;10.400;2023-07-16T10:18:25;9.98;;;4.15;;
51312;SDS011;37397;53.226;10.400;2023-07-16T10:20:53;8.18;;;4.05;;
51312;SDS011;37397;53.226;10.400;2023-07-16T10:23:22;12.95;;;4.18;;
51312;SDS011;37397;53.226;10.400;2023-07-16T10:25:58;8.60;;;4.03;;
51312;SDS011;37397;53.226;10.400;2023-07-16T10:28:26;10.00;;;3.92;;
51312;SDS011;37397;53.226;10.400;2023-07-16T10:30:53;7.35;;;3.70;;
51312;SDS011;37397;53.226;10.400;2023-07-16T10:33:19;8.10;;;4.13;;
51312;SDS011;37397;53.226;10.400;2023-07-16T10:35:46;16.25;;;4.72;;
51312;SDS011;37397;53.226;10.400;2023-07-16T10:38:13;7.65;;;3.60;;
51312;SDS011;37397;53.226;10.400;2023-07-16T10:40:43;11.23;;;4.20;;
51312;SDS011;37397;53.226;10.400;2023-07-16T10:43:14;12.75;;;4.38;;
51312;SDS011;37397;53.226;10.400;2023-07-16T10:45:40;7.90;;;3.58;;
51312;SDS011;37397;53.226;10.400;2023-07-16T10:48:07;8.18;;;4.07;;
51312;SDS011;37397;53.226;10.400;2023-07-16T10:50:34;7.93;;;3.60;;
51312;SDS011;37397;53.226;10.400;2023-07-16T10:53:02;9.40;;;3.70;;
51312;SDS011;37397;53.226;10.400;2023-07-16T10:55:29;9.50;;;4.00;;
51312;SDS011;37397;53.226;10.400;2023-07-16T10:57:56;9.93;;;4.53;;
51312;SDS011;37397;53.226;10.400;2023-07-16T11:00:22;7.88;;;3.50;;
51312;SDS011;37397;53.226;10.400;2023-07-16T11:02:50;9.05;;;3.78;;
51312;SDS011;37397;53.226;10.400;2023-07-16T11:05:17;8.63;;;4.10;;
51312;SDS011;37397;53.226;10.400;2023-07-16T11:07:48;7.20;;;3.85;;
51312;SDS011;37397;53.226;10.400;2023-07-16T11:10:20;7.80;;;3.35;;
51312;SDS011;37397;53.226;10.400;2023-07-16T11:12:50;7.82;;;3.78;;
51312;SDS011;37397;53.226;10.400;2023-07-16T11:15:29;6.45;;;3.42;;
51312;SDS011;37397;53.226;10.400;2023-07-16T11:17:56;7.22;;;3.45;;
51312;SDS011;37397;53.226;10.400;2023-07-16T11:20:23;8.93;;;3.38;;
51312;SDS011;37397;53.226;10.400;2023-07-16T11:22:50;8.27;;;3.60;;
51312;SDS011;37397;53.226;10.400;2023-07-16T11:25:16;8.50;;;3.90;;
51312;SDS011;37397;53.226;10.400;2023-07-16T11:27:48;9.80;;;3.95;;
51312;SDS011;37397;53.226;10.400;2023-07-16T11:30:14;8.60;;;3.90;;
51312;SDS011;37397;53.226;10.400;2023-07-16T11:32:42;7.25;;;4.03;;
51312;SDS011;37397;53.226;10.400;2023-07-16T11:35:12;8.63;;;4.03;;
51312;SDS011;37397;53.226;10.400;2023-07-16T11:37:43;7.93;;;3.20;;
51312;SDS011;37397;53.226;10.400;2023-07-16T11:40:11;5.88;;;3.70;;
51312;SDS011;37397;53.226;10.400;2023-07-16T11:42:42;7.68;;;3.63;;
51312;SDS011;37397;53.226;10.400;2023-07-16T11:45:19;6.40;;;3.55;;
51312;SDS011;37397;53.226;10.400;2023-07-16T11:47:47;7.82;;;3.78;;
51312;SDS011;37397;53.226;10.400;2023-07-16T11:50:13;8.75;;;3.53;;
51312;SDS011;37397;53.226;10.400;2023-07-16T11:52:41;8.80;;;3.55;;
51312;SDS011;37397;53.226;10.400;2023-07-16T11:55:07;6.25;;;3.83;;
51312;SDS011;37397;53.226;10.400;2023-07-16T11:57:34;7.35;;;3.42;;
51312;SDS011;37397;53.226;10.400;2023-07-16T12:00:02;8.07;;;3.40;;
51312;SDS011;37397;53.226;10.400;2023-07-16T12:02:30;7.47;;;3.53;;
51312;SDS011;37397;53.226;10.400;2023-07-16T12:04:56;6.93;;;3.55;;
51312;SDS011;37397;53.226;10.400;2023-07-16T12:07:32;6.05;;;3.63;;
51312;SDS011;37397;53.226;10.400;2023-07-16T12:10:02;8.45;;;3.50;;
51312;SDS011;37397;53.226;10.400;2023-07-16T12:12:30;10.55;;;3.45;;
51312;SDS011;37397;53.226;10.400;2023-07-16T12:14:57;7.60;;;3.10;;
51312;SDS011;37397;53.226;10.400;2023-07-16T12:17:24;5.57;;;3.03;;
51312;SDS011;37397;53.226;10.400;2023-07-16T12:19:50;8.32;;;3.20;;
51312;SDS011;37397;53.226;10.400;2023-07-16T12:22:17;6.05;;;2.92;;
51312;SDS011;37397;53.226;10.400;2023-07-16T12:24:44;8.65;;;3.50;;
51312;SDS011;37397;53.226;10.400;2023-07-16T12:27:13;7.47;;;3.20;;
51312;SDS011;37397;53.226;10.400;2023-07-16T12:29:41;7.22;;;3.28;;
51312;SDS011;37397;53.226;10.400;2023-07-16T12:32:07;8.15;;;3.60;;
51312;SDS011;37397;53.226;10.400;2023-07-16T12:34:35;6.35;;;3.22;;
51312;SDS011;37397;53.226;10.400;2023-07-16T12:37:03;8.48;;;3.20;;
51312;SDS011;37397;53.226;10.400;2023-07-16T12:39:29;7.30;;;3.28;;
51312;SDS011;37397;53.226;10.400;2023-07-16T12:41:56;8.85;;;3.30;;
51312;SDS011;37397;53.226;10.400;2023-07-16T12:44:23;5.70;;;2.78;;
51312;SDS011;37397;53.226;10.400;2023-07-16T12:46:50;7.85;;;3.22;;
51312;SDS011;37397;53.226;10.400;2023-07-16T12:49:16;6.70;;;2.92;;
51312;SDS011;37397;53.226;10.400;2023-07-16T12:51:43;8.73;;;3.45;;
51312;SDS011;37397;53.226;10.400;2023-07-16T12:54:09;8.25;;;3.25;;
51312;SDS011;37397;53.226;10.400;2023-07-16T12:56:36;8.75;;;2.97;;
51312;SDS011;37397;53.226;10.400;2023-07-16T12:59:02;6.10;;;3.30;;
51312;SDS011;37397;53.226;10.400;2023-07-16T13:01:29;5.70;;;3.10;;
51312;SDS011;37397;53.226;10.400;2023-07-16T13:03:57;6.53;;;3.15;;
51312;SDS011;37397;53.226;10.400;2023-07-16T13:06:24;6.53;;;3.05;;
51312;SDS011;37397;53.226;10.400;2023-07-16T13:08:50;6.82;;;3.20;;
51312;SDS011;37397;53.226;10.400;2023-07-16T13:11:17;6.63;;;2.90;;
51312;SDS011;37397;53.226;10.400;2023-07-16T13:13:43;5.25;;;2.80;;
51312;SDS011;37397;53.226;10.400;2023-07-16T13:16:10;5.75;;;3.33;;
51312;SDS011;37397;53.226;10.400;2023-07-16T13:18:37;8.48;;;3.42;;
51312;SDS011;37397;53.226;10.400;2023-07-16T13:21:04;7.18;;;3.00;;
51312;SDS011;37397;53.226;10.400;2023-07-16T13:23:30;6.38;;;2.95;;
51312;SDS011;37397;53.226;10.400;2023-07-16T13:25:57;7.55;;;2.90;;
51312;SDS011;37397;53.226;10.400;2023-07-16T13:28:23;5.35;;;2.90;;
51312;SDS011;37397;53.226;10.400;2023-07-16T13:30:50;6.00;;;3.00;;
51312;SDS011;37397;53.226;10.400;2023-07-16T13:33:17;6.03;;;2.83;;
51312;SDS011;37397;53.226;10.400;2023-07-16T13:35:44;7.50;;;3.10;;
51312;SDS011;37397;53.226;10.400;2023-07-16T13:38:11;8.40;;;3.20;;
51312;SDS011;37397;53.226;10.400;2023-07-16T13:40:37;4.82;;;2.83;;
51312;SDS011;37397;53.226;10.400;2023-07-16T13:43:03;5.75;;;2.78;;
51312;SDS011;37397;53.226;10.400;2023-07-16T13:45:31;6.50;;;3.25;;
51312;SDS011;37397;53.226;10.400;2023-07-16T13:47:59;5.88;;;3.00;;
51312;SDS011;37397;53.226;10.400;2023-07-16T13:50:26;8.82;;;3.60;;
51312;SDS011;37397;53.226;10.400;2023-07-16T13:52:52;7.72;;;3.50;;
51312;SDS011;37397;53.226;10.400;2023-07-16T13:55:19;4.60;;;2.58;;
51312;SDS011;37397;53.226;10.400;2023-07-16T13:57:45;7.13;;;3.10;;
51312;SDS011;37397;53.226;10.400;2023-07-16T14:00:12;6.45;;;3.25;;
51312;SDS011;37397;53.226;10.400;2023-07-16T14:02:42;5.85;;;2.90;;
51312;SDS011;37397;53.226;10.400;2023-07-16T14:05:10;9.32;;;3.25;;
51312;SDS011;37397;53.226;10.400;2023-07-16T14:07:37;6.68;;;3.25;;
51312;SDS011;37397;53.226;10.400;2023-07-16T14:10:03;5.57;;;3.17;;
51312;SDS011;37397;53.226;10.400;2023-07-16T14:12:31;7.57;;;3.10;;
51312;SDS011;37397;53.226;10.400;2023-07-16T14:14:57;8.48;;;3.30;;
51312;SDS011;37397;53.226;10.400;2023-07-16T14:17:24;7.20;;;3.30;;
51312;SDS011;37397;53.226;10.400;2023-07-16T14:19:51;7.15;;;3.15;;
51312;SDS011;37397;53.226;10.400;2023-07-16T14:22:17;8.38;;;3.05;;
51312;SDS011;37397;53.226;10.400;2023-07-16T14:24:44;6.55;;;3.17;;
51312;SDS011;37397;53.226;10.400;2023-07-16T14:27:10;8.85;;;3.40;;
51312;SDS011;37397;53.226;10.400;2023-07-16T14:29:39;7.72;;;3.63;;
51312;SDS011;37397;53.226;10.400;2023-07-16T14:32:24;7.13;;;3.35;;
51312;SDS011;37397;53.226;10.400;2023-07-16T14:34:52;8.38;;;3.65;;
51312;SDS011;37397;53.226;10.400;2023-07-16T14:37:18;10.75;;;3.50;;
51312;SDS011;37397;53.226;10.400;2023-07-16T14:39:45;8.77;;;3.47;;
51312;SDS011;37397;53.226;10.400;2023-07-16T14:42:12;7.32;;;3.15;;
51312;SDS011;37397;53.226;10.400;2023-07-16T14:44:38;8.27;;;3.50;;